Time;durP1;ratioP1;P1;durP2;ratioP2;P2;SDS_P1;SDS_P2;PMS_P1;PMS_P2;Temp;Humidity;BMP_temperature;BMP_pressure;BME280_temperature;BME280_humidity;BME280_pressure;Samples;Min_cycle;Max_cycle;Signal;HPM_P1;HPM_P2
2022/12/22 03:27:29;;;;;;;3.08;1.00;;;9.80;98.00;;;;;;5066800;28;20593;-70
2022/12/22 03:29:55;;;;;;;2.40;1.00;;;10.00;98.00;;;;;;5077759;28;20021;-72
2022/12/22 03:32:20;;;;;;;3.90;0.90;;;10.10;98.00;;;;;;5066966;28;20043;-71
2022/12/22 03:34:46;;;;;;;5.40;1.10;;;10.10;98.00;;;;;;5073041;28;20035;-71
2022/12/22 03:37:12;;;;;;;4.45;1.20;;;10.20;98.00;;;;;;5075991;28;20047;-69
2022/12/22 03:39:37;;;;;;;4.63;1.00;;;10.20;98.00;;;;;;5072643;28;20025;-70
2022/12/22 03:47:31;;;;;;;4.45;1.00;;;10.30;97.20;;;;;;5075239;28;19962;-70
2022/12/22 03:49:57;;;;;;;5.82;0.90;;;10.30;96.90;;;;;;5075317;28;20059;-70
2022/12/22 03:52:22;;;;;;;6.05;1.33;;;10.40;95.90;;;;;;5076943;28;20032;-70
2022/12/22 03:54:48;;;;;;;4.85;1.80;;;10.40;95.70;;;;;;5076841;28;20108;-70
2022/12/22 03:57:13;;;;;;;3.70;0.85;;;10.50;95.60;;;;;;5058336;28;20025;-69
2022/12/22 03:59:39;;;;;;;5.95;1.08;;;10.50;95.80;;;;;;5067803;28;20039;-70
2022/12/22 04:02:05;;;;;;;4.63;1.00;;;10.40;95.70;;;;;;5075659;28;20461;-70
2022/12/22 04:04:31;;;;;;;8.80;1.38;;;10.40;95.50;;;;;;5075173;28;20032;-70
2022/12/22 04:06:57;;;;;;;5.18;1.15;;;10.40;95.30;;;;;;5076487;28;20028;-70
2022/12/22 04:09:26;;;;;;;4.63;1.13;;;10.60;94.80;;;;;;5057965;28;20373;-70
2022/12/22 04:14:36;;;;;;;;;;;10.70;94.50;;;;;;5066841;28;20043;-70
2022/12/22 04:17:04;;;;;;;5.38;1.50;;;10.70;94.40;;;;;;5075090;28;20243;-71
2022/12/22 04:19:31;;;;;;;8.38;1.42;;;10.70;94.60;;;;;;5068337;28;20060;-70
2022/12/22 04:21:57;;;;;;;4.05;1.10;;;10.70;94.40;;;;;;5076480;28;20017;-68
2022/12/22 04:24:23;;;;;;;5.80;1.35;;;10.80;94.20;;;;;;5074803;28;20338;-69
2022/12/22 04:26:49;;;;;;;18.08;8.90;;;10.70;94.50;;;;;;5065069;28;20028;-70
2022/12/22 04:29:17;;;;;;;7.90;1.30;;;10.70;94.70;;;;;;5071918;28;20537;-70
2022/12/22 04:31:42;;;;;;;7.22;1.20;;;10.70;94.60;;;;;;5048516;28;20412;-69
2022/12/22 04:34:08;;;;;;;5.15;1.30;;;10.70;94.80;;;;;;5066470;28;20028;-70
2022/12/22 04:36:34;;;;;;;7.55;1.40;;;10.70;95.30;;;;;;5061293;28;20056;-70
2022/12/22 04:39:02;;;;;;;6.70;1.45;;;10.60;95.80;;;;;;5073307;28;20429;-69
2022/12/22 04:41:27;;;;;;;8.73;1.35;;;10.50;96.20;;;;;;5058736;28;20049;-69
2022/12/22 04:43:53;;;;;;;8.02;1.73;;;10.50;96.70;;;;;;5071045;28;20073;-69
2022/12/22 04:46:19;;;;;;;6.40;1.75;;;10.40;96.90;;;;;;5075561;28;20024;-70
2022/12/22 04:48:48;;;;;;;6.25;1.40;;;10.40;97.30;;;;;;5066509;28;20445;-69
2022/12/22 04:51:14;;;;;;;6.07;1.60;;;10.30;97.70;;;;;;5076067;28;20407;-70
2022/12/22 04:53:39;;;;;;;7.65;1.70;;;10.20;98.00;;;;;;5074428;28;20119;-71
2022/12/22 04:56:07;;;;;;;8.63;1.75;;;10.20;98.00;;;;;;5076580;28;20064;-72
2022/12/22 04:58:33;;;;;;;6.72;1.45;;;10.00;98.00;;;;;;5073460;28;20052;-70
2022/12/22 05:01:10;;;;;;;7.68;1.70;;;9.70;98.00;;;;;;5057996;28;20036;-70
2022/12/22 05:03:36;;;;;;;9.57;1.60;;;9.50;98.00;;;;;;5073310;28;20060;-71
2022/12/22 05:06:02;;;;;;;8.82;1.60;;;9.40;98.00;;;;;;5056329;28;20421;-71
2022/12/22 05:08:28;;;;;;;7.22;1.60;;;9.30;98.00;;;;;;5071213;28;20032;-71
2022/12/22 05:10:53;;;;;;;8.48;1.70;;;9.20;98.00;;;;;;5075409;28;20028;-71
2022/12/22 05:13:19;;;;;;;6.43;1.83;;;9.20;98.00;;;;;;5057578;28;20119;-71
2022/12/22 05:15:44;;;;;;;11.13;2.00;;;9.20;98.00;;;;;;5073762;28;20024;-71
2022/12/22 05:18:12;;;;;;;9.68;1.70;;;9.20;98.00;;;;;;5072368;28;20023;-71
2022/12/22 05:20:37;;;;;;;8.88;1.80;;;9.30;98.00;;;;;;5074079;28;20036;-71
2022/12/22 05:23:03;;;;;;;10.25;2.17;;;9.30;98.00;;;;;;5074654;28;20029;-71
2022/12/22 05:25:28;;;;;;;7.78;1.85;;;9.40;98.00;;;;;;5076162;28;20024;-70
2022/12/22 05:27:54;;;;;;;12.27;2.38;;;9.50;98.00;;;;;;5073365;28;20032;-70
2022/12/22 05:30:20;;;;;;;8.95;2.63;;;9.50;98.00;;;;;;5075144;28;21706;-70
2022/12/22 05:32:45;;;;;;;14.18;2.45;;;9.70;98.00;;;;;;5074611;28;20056;-71
2022/12/22 05:35:14;;;;;;;8.35;1.90;;;9.90;98.00;;;;;;5072635;28;20290;-69
2022/12/22 05:37:40;;;;;;;9.68;1.95;;;10.20;98.00;;;;;;5073821;28;20115;-70
2022/12/22 05:40:07;;;;;;;16.27;3.38;;;10.30;97.80;;;;;;5073923;28;20481;-70
2022/12/22 05:42:35;;;;;;;9.85;2.10;;;10.30;98.00;;;;;;5074614;28;20329;-71
2022/12/22 05:45:11;;;;;;;8.18;2.00;;;10.30;97.40;;;;;;5075076;28;20049;-71
2022/12/22 05:47:36;;;;;;;12.23;2.33;;;10.30;97.40;;;;;;5041090;28;20031;-70
2022/12/22 05:50:03;;;;;;;8.80;1.75;;;10.30;97.30;;;;;;5073458;28;20028;-71
2022/12/22 05:52:28;;;;;;;12.05;2.20;;;10.20;98.00;;;;;;5073935;28;20082;-71
2022/12/22 05:54:54;;;;;;;10.05;2.55;;;9.80;98.00;;;;;;5074882;28;20063;-71
2022/12/22 05:57:19;;;;;;;8.45;2.22;;;9.60;98.00;;;;;;5074258;28;20031;-70
2022/12/22 05:59:45;;;;;;;10.57;2.40;;;9.60;98.00;;;;;;5079342;28;20024;-70
2022/12/22 06:02:10;;;;;;;10.13;2.72;;;9.50;98.00;;;;;;5075307;28;20325;-70
2022/12/22 06:04:36;;;;;;;12.82;3.47;;;9.30;98.00;;;;;;5069235;28;20016;-71
2022/12/22 06:07:01;;;;;;;8.75;2.35;;;9.10;98.00;;;;;;5073309;28;20028;-71
2022/12/22 06:09:27;;;;;;;9.88;2.20;;;8.90;98.00;;;;;;5073460;28;20394;-70
2022/12/22 06:11:52;;;;;;;14.20;2.90;;;8.80;98.00;;;;;;5072978;28;20033;-70
2022/12/22 06:14:18;;;;;;;11.20;2.17;;;8.90;98.00;;;;;;5072469;28;20021;-70
2022/12/22 06:16:44;;;;;;;15.13;2.70;;;9.00;98.00;;;;;;5074100;28;20028;-70
2022/12/22 06:19:09;;;;;;;11.55;2.40;;;9.10;98.00;;;;;;5071548;28;20029;-71
2022/12/22 06:21:35;;;;;;;12.95;2.35;;;9.10;98.00;;;;;;5074156;28;20048;-69
2022/12/22 06:24:00;;;;;;;8.77;1.92;;;9.10;98.00;;;;;;5071716;28;20333;-70
2022/12/22 06:26:26;;;;;;;10.95;2.10;;;9.30;98.00;;;;;;5075001;28;20024;-72
2022/12/22 06:28:51;;;;;;;12.00;2.30;;;9.60;97.60;;;;;;5073007;28;20063;-72
2022/12/22 06:31:18;;;;;;;12.10;2.38;;;9.70;97.10;;;;;;5073824;28;20132;-71
2022/12/22 06:33:44;;;;;;;14.60;2.60;;;9.80;96.10;;;;;;5068566;28;20116;-70
2022/12/22 06:36:10;;;;;;;13.88;2.63;;;9.90;95.10;;;;;;5055333;28;20036;-69
2022/12/22 06:38:35;;;;;;;16.88;2.40;;;9.90;95.00;;;;;;5073824;28;20090;-70
2022/12/22 06:41:01;;;;;;;12.05;1.80;;;9.90;94.90;;;;;;5072884;28;20326;-70
2022/12/22 06:43:26;;;;;;;11.38;2.53;;;9.90;94.50;;;;;;5055432;28;20033;-72
2022/12/22 06:45:52;;;;;;;12.45;2.42;;;10.00;94.10;;;;;;5072066;28;20068;-70
2022/12/22 06:48:18;;;;;;;15.40;3.05;;;10.00;94.10;;;;;;5071894;28;20032;-70
2022/12/22 06:50:44;;;;;;;11.05;2.25;;;10.10;93.60;;;;;;5075100;28;20074;-71
2022/12/22 06:53:10;;;;;;;10.55;2.35;;;10.20;93.10;;;;;;5076502;28;20321;-70
2022/12/22 06:55:37;;;;;;;10.15;2.28;;;10.30;92.30;;;;;;5077747;28;20329;-71
2022/12/22 06:58:03;;;;;;;9.95;2.30;;;10.30;92.10;;;;;;5076980;28;20431;-69
2022/12/22 07:00:29;;;;;;;13.23;3.25;;;10.20;91.80;;;;;;5060078;28;20040;-70
2022/12/22 07:02:54;;;;;;;12.95;2.78;;;10.20;91.90;;;;;;5076193;28;20048;-69
2022/12/22 07:05:20;;;;;;;9.55;2.50;;;10.10;92.30;;;;;;5073374;28;20033;-71
2022/12/22 07:07:46;;;;;;;11.30;3.17;;;10.20;91.30;;;;;;5077433;28;20032;-71
2022/12/22 07:10:11;;;;;;;11.07;2.90;;;10.30;91.10;;;;;;5073964;28;20029;-69
2022/12/22 07:12:37;;;;;;;12.93;3.13;;;10.10;92.20;;;;;;5073317;28;20509;-69
2022/12/22 07:15:03;;;;;;;14.70;2.67;;;9.90;92.90;;;;;;5071118;28;20020;-69
2022/12/22 07:17:28;;;;;;;11.63;2.38;;;9.90;92.90;;;;;;5076914;28;20031;-71
2022/12/22 07:19:54;;;;;;;13.77;2.38;;;10.10;92.20;;;;;;5075265;28;20028;-71
2022/12/22 07:22:19;;;;;;;9.68;2.42;;;10.20;92.00;;;;;;5078317;28;20021;-70
2022/12/22 07:24:45;;;;;;;11.80;2.20;;;10.20;91.70;;;;;;5075037;28;20027;-70
2022/12/22 07:27:10;;;;;;;10.10;2.53;;;10.30;91.40;;;;;;5073924;28;20024;-71
2022/12/22 07:29:37;;;;;;;10.40;2.28;;;10.30;91.80;;;;;;5076393;28;20095;-70
2022/12/22 07:32:03;;;;;;;10.60;2.78;;;10.20;92.10;;;;;;5075946;28;20123;-71
2022/12/22 07:34:29;;;;;;;12.93;3.38;;;10.10;92.20;;;;;;5072988;28;20460;-71
2022/12/22 07:36:54;;;;;;;8.75;2.05;;;10.20;91.80;;;;;;5058410;28;20414;-71
2022/12/22 07:39:20;;;;;;;9.02;2.10;;;10.20;91.80;;;;;;5075523;28;20021;-70
2022/12/22 07:44:29;;;;;;;13.57;3.05;;;10.10;93.70;;;;;;5074312;28;20059;-71
2022/12/22 07:46:56;;;;;;;14.07;3.28;;;9.70;96.70;;;;;;5066196;28;20041;-71
2022/12/22 07:52:05;;;;;;;13.65;2.72;;;8.80;98.00;;;;;;5069250;28;20044;-72
2022/12/22 07:54:32;;;;;;;15.63;2.65;;;8.50;98.00;;;;;;5074171;28;20322;-73
2022/12/22 07:56:59;;;;;;;15.52;3.40;;;8.30;98.00;;;;;;5075446;28;20100;-72
2022/12/22 07:59:25;;;;;;;11.10;2.33;;;8.20;97.10;;;;;;5052730;28;20063;-73
2022/12/22 08:01:51;;;;;;;13.75;2.92;;;8.10;98.00;;;;;;5072385;28;20029;-72
2022/12/22 08:04:16;;;;;;;14.40;3.50;;;8.10;96.20;;;;;;5070240;28;20020;-72
2022/12/22 08:06:42;;;;;;;25.08;6.53;;;8.10;97.90;;;;;;5066258;28;20029;-72
2022/12/22 08:09:11;;;;;;;22.05;4.78;;;8.00;95.00;;;;;;5075807;28;20036;-72
2022/12/22 08:11:37;;;;;;;18.73;4.28;;;7.90;94.90;;;;;;5071159;28;20032;-72
2022/12/22 08:14:02;;;;;;;24.58;5.63;;;7.90;92.70;;;;;;5057171;28;20055;-72
2022/12/22 08:16:28;;;;;;;24.30;6.57;;;7.90;90.00;;;;;;5065422;28;20291;-72
2022/12/22 08:18:54;;;;;;;27.88;4.70;;;7.80;89.30;;;;;;5073425;28;20096;-72
2022/12/22 08:21:20;;;;;;;11.70;3.00;;;7.70;85.40;;;;;;5070994;28;20020;-72
2022/12/22 08:23:45;;;;;;;13.40;2.75;;;7.70;84.10;;;;;;5071999;28;20487;-71
2022/12/22 08:26:19;;;;;;;11.45;2.92;;;7.70;85.10;;;;;;5073436;28;20048;-71
2022/12/22 08:28:57;;;;;;;10.90;3.37;;;7.60;89.30;;;;;;5075679;28;20126;-71
2022/12/22 08:31:25;;;;;;;15.30;3.17;;;7.70;89.80;;;;;;5071693;28;20035;-71
2022/12/22 08:33:53;;;;;;;9.43;2.40;;;7.80;90.40;;;;;;5063941;28;20016;-72
2022/12/22 08:36:18;;;;;;;12.20;2.75;;;8.00;94.40;;;;;;5074102;28;20338;-70
2022/12/22 08:38:44;;;;;;;16.13;3.22;;;8.20;97.60;;;;;;5071705;28;20029;-71
2022/12/22 08:41:13;;;;;;;11.80;3.40;;;8.20;96.10;;;;;;5071578;28;20054;-71
2022/12/22 08:43:38;;;;;;;12.27;2.85;;;8.20;96.50;;;;;;5073323;28;20052;-71
2022/12/22 08:46:04;;;;;;;14.82;2.70;;;8.20;96.70;;;;;;5074902;28;20087;-71
2022/12/22 08:48:30;;;;;;;15.85;3.55;;;8.20;96.50;;;;;;5074712;28;20064;-70
2022/12/22 08:50:55;;;;;;;10.07;2.60;;;8.20;95.20;;;;;;5074627;28;20032;-71
2022/12/22 08:53:24;;;;;;;11.65;2.97;;;8.20;96.30;;;;;;5074251;28;20424;-71
2022/12/22 08:55:51;;;;;;;10.55;2.60;;;8.20;96.40;;;;;;5075543;28;20052;-70
2022/12/22 08:58:17;;;;;;;10.82;2.33;;;8.10;95.10;;;;;;5058074;28;20020;-71
2022/12/22 09:00:43;;;;;;;13.43;3.08;;;8.00;95.70;;;;;;5073275;28;20515;-71
2022/12/22 09:03:08;;;;;;;11.85;2.20;;;8.00;96.00;;;;;;5073590;28;20427;-70
2022/12/22 09:05:37;;;;;;;10.82;2.35;;;8.10;98.00;;;;;;5074459;28;20421;-70
2022/12/22 09:08:04;;;;;;;12.82;2.10;;;8.20;96.70;;;;;;5074769;28;20321;-70
2022/12/22 09:10:29;;;;;;;10.25;2.70;;;8.40;98.00;;;;;;5070259;28;20036;-69
2022/12/22 09:12:55;;;;;;;13.18;3.15;;;8.60;98.00;;;;;;5076144;28;20413;-70
2022/12/22 09:15:20;;;;;;;8.88;2.30;;;8.60;98.00;;;;;;5074424;28;20021;-69
2022/12/22 09:17:47;;;;;;;9.52;2.53;;;8.70;98.00;;;;;;5072584;28;20425;-68
2022/12/22 09:20:15;;;;;;;12.10;2.60;;;8.60;98.00;;;;;;5072927;28;20130;-71
2022/12/22 09:22:41;;;;;;;12.32;3.20;;;8.60;98.00;;;;;;5074727;28;20025;-70
2022/12/22 09:25:07;;;;;;;8.73;2.50;;;8.60;98.00;;;;;;5065669;28;20029;-71
2022/12/22 09:27:33;;;;;;;11.40;2.45;;;8.60;98.00;;;;;;5059052;28;20414;-70
2022/12/22 09:29:58;;;;;;;12.45;2.85;;;8.60;98.00;;;;;;5073505;28;20033;-71
2022/12/22 09:32:24;;;;;;;14.23;2.70;;;8.60;98.00;;;;;;5054688;28;20071;-71
2022/12/22 09:34:50;;;;;;;8.82;1.98;;;8.50;98.00;;;;;;5073915;28;20029;-71
2022/12/22 09:37:16;;;;;;;12.48;2.33;;;8.40;98.00;;;;;;5072518;28;20104;-72
2022/12/22 09:39:42;;;;;;;17.65;3.95;;;8.40;98.00;;;;;;5072656;28;20026;-70
2022/12/22 09:42:20;;;;;;;12.55;2.55;;;8.50;98.00;;;;;;5054693;28;20021;-70
2022/12/22 09:44:49;;;;;;;13.15;2.40;;;8.40;98.00;;;;;;5073631;28;20060;-70
2022/12/22 09:47:34;;;;;;;11.63;2.42;;;8.40;98.00;;;;;;5075448;28;20409;-70
2022/12/22 09:50:02;;;;;;;11.00;2.10;;;8.30;98.00;;;;;;5070016;28;20467;-70
2022/12/22 09:52:33;;;;;;;11.02;2.83;;;8.30;98.00;;;;;;5067891;28;20025;-70
2022/12/22 09:55:04;;;;;;;10.18;2.20;;;8.40;98.00;;;;;;5072323;28;20028;-70
2022/12/22 09:57:31;;;;;;;11.23;2.60;;;8.40;98.00;;;;;;5074428;28;20032;-70
2022/12/22 10:00:14;;;;;;;10.98;2.75;;;8.40;98.00;;;;;;5071479;28;20424;-70
2022/12/22 10:02:48;;;;;;;12.70;3.20;;;8.50;98.00;;;;;;5071826;28;20119;-70
2022/12/22 10:05:37;;;;;;;14.85;3.13;;;8.70;98.00;;;;;;5066129;28;20028;-70
2022/12/22 10:08:15;;;;;;;11.07;3.17;;;8.70;98.00;;;;;;5069928;28;20667;-70
2022/12/22 10:10:41;;;;;;;12.95;2.70;;;8.80;98.00;;;;;;5061524;28;20029;-69
2022/12/22 10:13:16;;;;;;;13.60;3.00;;;8.80;98.00;;;;;;5058606;28;20031;-70
2022/12/22 10:15:42;;;;;;;14.65;3.15;;;8.90;98.00;;;;;;5069425;28;20013;-70
2022/12/22 10:18:14;;;;;;;7.07;2.03;;;9.00;98.00;;;;;;5063659;28;20445;-71
2022/12/22 10:20:43;;;;;;;11.77;2.50;;;9.10;98.00;;;;;;5058189;28;20054;-68
2022/12/22 10:23:18;;;;;;;9.32;2.50;;;9.10;98.00;;;;;;5060026;28;20329;-69
2022/12/22 10:25:55;;;;;;;15.88;3.13;;;9.10;98.00;;;;;;5074493;28;20028;-68
2022/12/22 10:28:25;;;;;;;13.73;3.00;;;9.10;98.00;;;;;;5070782;28;20044;-69
2022/12/22 10:31:19;;;;;;;12.30;2.90;;;9.10;98.00;;;;;;5069045;28;20017;-68
2022/12/22 10:33:47;;;;;;;10.53;2.83;;;9.20;98.00;;;;;;5073901;28;20025;-69
2022/12/22 10:36:18;;;;;;;15.57;3.33;;;9.30;98.00;;;;;;5059782;28;20262;-69
2022/12/22 10:38:58;;;;;;;13.07;3.83;;;9.30;98.00;;;;;;5075352;28;20024;-70
2022/12/22 10:41:27;;;;;;;11.23;3.08;;;9.40;98.00;;;;;;5068158;28;20021;-69
2022/12/22 10:43:56;;;;;;;16.25;3.97;;;9.40;98.00;;;;;;5050500;28;20048;-68
2022/12/22 10:46:41;;;;;;;14.98;3.42;;;9.40;98.00;;;;;;5065491;28;20472;-69
2022/12/22 10:49:16;;;;;;;14.77;3.30;;;9.40;98.00;;;;;;5065798;28;20044;-69
2022/12/22 10:51:45;;;;;;;9.63;2.17;;;9.50;98.00;;;;;;5067130;28;20432;-69
2022/12/22 10:54:32;;;;;;;13.60;2.85;;;9.60;98.00;;;;;;5072571;28;20377;-69
2022/12/22 10:57:13;;;;;;;9.13;2.47;;;9.80;98.00;;;;;;5074051;28;20028;-68
2022/12/22 11:00:00;;;;;;;9.63;2.60;;;9.90;98.00;;;;;;5045226;28;20021;-70
2022/12/22 11:02:37;;;;;;;12.95;3.78;;;9.90;98.00;;;;;;5070621;28;20125;-69
2022/12/22 11:05:10;;;;;;;12.30;3.20;;;9.90;98.00;;;;;;5074739;28;20043;-69
2022/12/22 11:07:46;;;;;;;11.32;3.00;;;9.90;98.00;;;;;;5072898;28;20141;-69
2022/12/22 11:10:34;;;;;;;7.90;2.33;;;9.80;98.00;;;;;;5058222;28;20013;-69
2022/12/22 11:13:07;;;;;;;10.40;2.60;;;9.80;98.00;;;;;;5075552;28;20032;-69
2022/12/22 11:15:37;;;;;;;12.23;3.30;;;9.90;98.00;;;;;;5057543;28;20029;-69
2022/12/22 11:18:29;;;;;;;11.70;3.55;;;10.00;98.00;;;;;;5072722;28;20031;-69
2022/12/22 11:21:10;;;;;;;15.55;3.13;;;9.90;98.00;;;;;;5059446;28;20024;-69
2022/12/22 11:23:57;;;;;;;12.55;2.97;;;9.80;98.00;;;;;;5070362;28;20082;-69
2022/12/22 11:26:39;;;;;;;8.82;2.47;;;9.80;98.00;;;;;;5077533;28;20068;-69
2022/12/22 11:29:32;;;;;;;12.25;2.25;;;9.90;98.00;;;;;;5075286;28;20317;-68
2022/12/22 11:32:23;;;;;;;10.52;2.65;;;9.90;98.00;;;;;;5076359;28;20103;-69
2022/12/22 11:35:21;;;;;;;14.43;2.63;;;9.90;98.00;;;;;;5059251;28;20039;-69
2022/12/22 11:37:53;;;;;;;14.02;4.05;;;9.90;98.00;;;;;;5069905;28;20357;-69
2022/12/22 11:40:33;;;;;;;18.17;3.20;;;9.90;98.00;;;;;;5075521;28;20322;-69
2022/12/22 11:43:28;;;;;;;17.40;4.00;;;9.70;98.00;;;;;;5078339;28;20028;-69
2022/12/22 11:46:15;;;;;;;9.75;2.20;;;9.40;98.00;;;;;;5075126;28;20075;-70
2022/12/22 11:49:15;;;;;;;10.77;2.38;;;9.00;98.00;;;;;;5044917;28;20154;-71
2022/12/22 11:51:58;;;;;;;11.38;3.15;;;8.90;98.00;;;;;;5074657;28;20315;-71
2022/12/22 11:55:04;;;;;;;12.77;3.45;;;8.70;98.00;;;;;;5059610;28;20430;-71
2022/12/22 11:57:47;;;;;;;10.75;2.75;;;8.60;97.90;;;;;;5071527;28;20125;-71
2022/12/22 12:00:14;;;;;;;19.33;3.97;;;8.60;96.90;;;;;;5059151;28;20052;-71
2022/12/22 12:03:34;;;;;;;18.40;4.07;;;8.60;97.30;;;;;;5070166;28;20036;-71
2022/12/22 12:06:27;;;;;;;16.88;3.17;;;8.60;97.30;;;;;;4967226;28;20039;-70
2022/12/22 12:09:22;;;;;;;18.05;4.53;;;8.60;96.80;;;;;;5051124;28;20029;-69
2022/12/22 12:12:07;;;;;;;23.20;6.57;;;8.70;96.50;;;;;;5050843;28;20060;-68
2022/12/22 12:14:52;;;;;;;11.50;3.55;;;8.70;96.50;;;;;;5072673;28;20024;-72
2022/12/22 12:17:59;;;;;;;19.17;6.15;;;8.70;98.00;;;;;;5057705;28;20082;-71
2022/12/22 12:20:49;;;;;;;16.13;5.50;;;8.70;97.40;;;;;;5062661;28;20134;-70
2022/12/22 12:23:41;;;;;;;15.25;4.53;;;8.70;97.90;;;;;;5074578;28;20040;-69
2022/12/22 12:26:18;;;;;;;17.05;3.65;;;8.60;97.70;;;;;;5072706;28;20023;-69
2022/12/22 12:29:12;;;;;;;16.20;4.00;;;8.70;98.00;;;;;;5077079;28;20043;-71
2022/12/22 12:32:12;;;;;;;16.03;3.70;;;8.70;98.00;;;;;;5076253;28;20035;-68
2022/12/22 12:34:45;;;;;;;20.45;4.82;;;8.70;98.00;;;;;;5043520;28;20048;-72
2022/12/22 12:37:27;;;;;;;14.93;4.25;;;8.70;97.80;;;;;;5057951;28;20033;-70
2022/12/22 12:39:56;;;;;;;15.18;3.42;;;8.60;98.00;;;;;;5073864;28;20031;-69
2022/12/22 12:42:33;;;;;;;10.15;2.50;;;8.70;98.00;;;;;;5064963;28;20067;-70
2022/12/22 12:45:01;;;;;;;14.45;3.75;;;8.80;98.00;;;;;;5048438;28;20143;-71
2022/12/22 12:47:33;;;;;;;20.70;3.63;;;8.90;98.00;;;;;;5072118;28;20070;-71
2022/12/22 12:50:25;;;;;;;15.77;3.40;;;9.00;98.00;;;;;;5072462;28;20028;-71
2022/12/22 12:52:50;;;;;;;19.92;3.28;;;9.00;98.00;;;;;;5057475;28;20029;-71
2022/12/22 12:55:28;;;;;;;16.40;2.95;;;9.00;98.00;;;;;;5057288;28;20118;-70
2022/12/22 12:57:53;;;;;;;16.85;4.07;;;9.20;98.00;;;;;;5040876;28;20052;-70
2022/12/22 13:00:31;;;;;;;16.20;2.97;;;9.40;98.00;;;;;;5061876;28;20059;-70
2022/12/22 13:03:11;;;;;;;16.70;3.67;;;9.40;98.00;;;;;;5074386;28;20025;-70
2022/12/22 13:06:03;;;;;;;15.10;4.00;;;9.60;98.00;;;;;;5075073;28;20334;-69
2022/12/22 13:08:29;;;;;;;15.00;3.28;;;9.70;98.00;;;;;;5057171;28;20032;-70
2022/12/22 13:10:54;;;;;;;14.70;3.60;;;9.70;98.00;;;;;;5061305;28;20017;-70
2022/12/22 13:13:25;;;;;;;11.60;3.05;;;9.80;98.00;;;;;;5060642;28;20031;-70
2022/12/22 13:16:02;;;;;;;10.85;2.80;;;9.90;98.00;;;;;;5060676;28;20021;-69
2022/12/22 13:18:28;;;;;;;13.88;2.72;;;9.90;98.00;;;;;;5056543;28;20012;-69
2022/12/22 13:21:07;;;;;;;14.95;2.83;;;9.90;98.00;;;;;;5076096;28;20024;-69
2022/12/22 13:23:40;;;;;;;17.02;2.85;;;9.90;98.00;;;;;;5038365;28;20032;-70
2022/12/22 13:26:10;;;;;;;12.32;3.20;;;10.00;98.00;;;;;;5038414;28;20311;-70
2022/12/22 13:28:39;;;;;;;13.88;3.78;;;10.00;98.00;;;;;;5055994;28;20025;-70
2022/12/22 13:31:30;;;;;;;16.73;3.30;;;9.90;98.00;;;;;;5055855;28;20086;-69
2022/12/22 13:34:56;;;;;;;13.95;2.90;;;9.90;98.00;;;;;;5061517;28;20032;-70
2022/12/22 13:37:25;;;;;;;12.48;3.38;;;9.90;98.00;;;;;;5016235;28;20032;-70
2022/12/22 13:40:04;;;;;;;15.32;2.88;;;9.90;98.00;;;;;;5075156;28;20082;-69
2022/12/22 13:42:33;;;;;;;21.15;4.65;;;9.90;98.00;;;;;;5074429;28;20025;-70
2022/12/22 13:45:00;;;;;;;15.73;3.50;;;10.00;98.00;;;;;;5061909;28;20118;-70
2022/12/22 13:47:31;;;;;;;14.82;3.17;;;10.10;98.00;;;;;;5070407;28;20028;-69
2022/12/22 13:49:57;;;;;;;17.42;4.05;;;10.10;98.00;;;;;;5073368;28;20024;-70
2022/12/22 13:52:23;;;;;;;10.70;3.00;;;10.10;98.00;;;;;;5074441;28;20032;-69
2022/12/22 13:54:49;;;;;;;13.65;3.40;;;10.10;98.00;;;;;;5075690;28;20316;-70
2022/12/22 13:57:21;;;;;;;18.08;4.18;;;10.00;98.00;;;;;;5075695;28;20024;-69
2022/12/22 13:59:49;;;;;;;14.60;3.10;;;10.00;98.00;;;;;;5056151;28;20113;-70
2022/12/22 14:02:18;;;;;;;19.23;3.90;;;10.00;98.00;;;;;;5056769;28;20429;-70
2022/12/22 14:05:05;;;;;;;13.45;2.92;;;9.90;98.00;;;;;;5072700;28;20058;-70
2022/12/22 14:07:32;;;;;;;16.15;3.33;;;9.90;98.00;;;;;;5038759;28;20159;-70
2022/12/22 14:09:59;;;;;;;17.63;3.90;;;9.90;98.00;;;;;;5057187;28;20099;-70
2022/12/22 14:12:37;;;;;;;15.73;4.30;;;9.90;98.00;;;;;;5056324;28;20325;-69
2022/12/22 14:15:08;;;;;;;13.48;2.90;;;9.90;98.00;;;;;;5040345;28;20066;-69
2022/12/22 14:17:37;;;;;;;13.95;3.35;;;9.90;98.00;;;;;;5073912;28;20033;-69
2022/12/22 14:20:16;;;;;;;16.95;3.42;;;9.90;98.00;;;;;;5073138;28;20029;-69
2022/12/22 14:22:49;;;;;;;18.35;3.80;;;9.90;98.00;;;;;;5068139;28;20031;-69
2022/12/22 14:25:20;;;;;;;15.52;3.00;;;9.90;98.00;;;;;;5073260;28;20108;-70
2022/12/22 14:27:54;;;;;;;15.55;3.33;;;9.90;98.00;;;;;;5074246;28;20021;-69
2022/12/22 14:30:42;;;;;;;15.48;3.35;;;9.80;98.00;;;;;;5056447;28;20059;-69
2022/12/22 14:33:30;;;;;;;16.35;2.92;;;9.70;98.00;;;;;;5071757;28;20426;-69
2022/12/22 14:36:20;;;;;;;18.48;3.72;;;9.60;98.00;;;;;;5074071;28;20023;-69
2022/12/22 14:38:48;;;;;;;12.10;3.47;;;9.50;98.00;;;;;;5074032;28;20029;-70
2022/12/22 14:41:51;;;;;;;15.15;3.45;;;9.40;98.00;;;;;;5073922;28;20020;-70
2022/12/22 14:44:24;;;;;;;16.48;3.92;;;9.40;98.00;;;;;;5054036;28;20049;-69
2022/12/22 14:47:10;;;;;;;18.75;5.85;;;9.40;98.00;;;;;;5047111;28;20028;-69
2022/12/22 14:49:48;;;;;;;12.73;3.88;;;9.40;98.00;;;;;;5072761;28;20115;-69
2022/12/22 14:52:21;;;;;;;18.27;4.03;;;9.30;98.00;;;;;;5072887;28;20095;-69
2022/12/22 14:54:49;;;;;;;16.95;3.17;;;9.40;98.00;;;;;;5056057;28;20036;-69
2022/12/22 14:57:26;;;;;;;21.10;4.22;;;9.30;98.00;;;;;;5073906;28;20031;-69
2022/12/22 15:00:06;;;;;;;13.45;2.78;;;9.20;98.00;;;;;;5074781;28;20024;-70
2022/12/22 15:02:36;;;;;;;18.00;4.07;;;9.20;98.00;;;;;;5057556;28;20043;-68
2022/12/22 15:05:14;;;;;;;21.67;4.28;;;9.20;98.00;;;;;;5073155;28;20033;-68
2022/12/22 15:07:46;;;;;;;21.17;5.90;;;9.10;98.00;;;;;;5074833;28;20048;-68
2022/12/22 15:10:11;;;;;;;18.35;4.82;;;9.00;98.00;;;;;;5073789;28;20032;-71
2022/12/22 15:12:37;;;;;;;21.90;4.50;;;8.90;98.00;;;;;;5077462;28;20028;-72
2022/12/22 15:15:03;;;;;;;26.75;9.07;;;8.90;98.00;;;;;;5077548;28;20066;-71
2022/12/22 15:17:28;;;;;;;15.98;4.80;;;8.90;98.00;;;;;;5077986;28;20028;-71
2022/12/22 15:19:57;;;;;;;29.60;8.25;;;8.90;98.00;;;;;;5071159;28;20052;-70
2022/12/22 15:22:23;;;;;;;19.00;6.32;;;8.90;98.00;;;;;;5060323;28;20370;-70
2022/12/22 15:24:52;;;;;;;21.90;7.65;;;8.80;98.00;;;;;;5062944;28;20028;-70
2022/12/22 15:27:17;;;;;;;18.13;5.25;;;8.80;98.00;;;;;;5057582;28;20468;-69
2022/12/22 15:29:43;;;;;;;13.65;4.05;;;8.80;98.00;;;;;;5074253;28;20033;-69
2022/12/22 15:32:12;;;;;;;18.40;5.47;;;8.90;98.00;;;;;;5071940;28;20036;-69
2022/12/22 15:34:37;;;;;;;24.23;6.78;;;8.90;98.00;;;;;;5069207;28;20028;-69
2022/12/22 15:37:03;;;;;;;29.23;11.98;;;8.90;98.00;;;;;;5075457;28;20027;-68
2022/12/22 15:39:28;;;;;;;18.98;5.82;;;9.00;98.00;;;;;;5043319;28;20495;-68
2022/12/22 15:41:57;;;;;;;18.52;4.97;;;9.00;98.00;;;;;;5057438;28;20028;-68
2022/12/22 15:44:23;;;;;;;17.08;6.30;;;9.00;98.00;;;;;;5068943;28;20048;-70
2022/12/22 15:46:56;;;;;;;28.45;11.02;;;9.10;98.00;;;;;;5076254;28;20031;-69
2022/12/22 15:49:25;;;;;;;24.23;14.88;;;9.10;98.00;;;;;;5073933;28;20032;-69
2022/12/22 15:51:59;;;;;;;18.75;4.13;;;9.10;98.00;;;;;;5073786;28;20029;-68
2022/12/22 15:54:26;;;;;;;16.42;4.78;;;9.20;98.00;;;;;;5045023;28;20033;-68
2022/12/22 15:56:54;;;;;;;17.63;3.92;;;9.30;98.00;;;;;;5057113;28;20028;-68
2022/12/22 15:59:27;;;;;;;16.02;3.58;;;9.40;98.00;;;;;;5068927;28;20318;-68
2022/12/22 16:01:53;;;;;;;17.65;3.47;;;9.40;98.00;;;;;;5055361;28;20111;-69
2022/12/22 16:04:21;;;;;;;18.92;3.38;;;9.40;98.00;;;;;;5075477;28;20105;-69
2022/12/22 16:06:49;;;;;;;16.95;3.20;;;9.40;98.00;;;;;;5074791;28;20044;-68
2022/12/22 16:09:26;;;;;;;14.90;3.63;;;9.40;98.00;;;;;;5077415;28;20032;-68
2022/12/22 16:11:56;;;;;;;14.02;3.33;;;9.50;98.00;;;;;;5075624;28;20103;-71
2022/12/22 16:14:23;;;;;;;15.88;2.90;;;9.60;97.80;;;;;;5077547;28;20321;-69
2022/12/22 16:16:49;;;;;;;14.60;3.50;;;9.70;96.90;;;;;;5071962;28;20013;-69
2022/12/22 16:19:16;;;;;;;20.63;3.58;;;9.70;96.90;;;;;;5075219;28;20031;-69
2022/12/22 16:21:44;;;;;;;14.50;3.33;;;9.70;96.90;;;;;;5075674;28;20029;-68
2022/12/22 16:24:24;;;;;;;16.73;3.88;;;9.70;97.00;;;;;;5076561;28;20045;-69
2022/12/22 16:26:50;;;;;;;14.77;3.20;;;9.70;96.60;;;;;;5039204;28;20033;-69
2022/12/22 16:29:16;;;;;;;15.63;3.65;;;9.70;96.90;;;;;;5060903;28;20031;-68
2022/12/22 16:31:41;;;;;;;20.50;4.35;;;9.70;97.00;;;;;;5076219;28;20032;-69
2022/12/22 16:34:10;;;;;;;16.50;3.83;;;9.70;97.00;;;;;;5056332;28;20041;-69
2022/12/22 16:36:36;;;;;;;15.93;3.58;;;9.70;97.20;;;;;;5059219;28;20456;-69
2022/12/22 16:39:01;;;;;;;17.02;3.60;;;9.70;97.20;;;;;;5074993;28;20096;-69
2022/12/22 16:41:27;;;;;;;13.10;3.28;;;9.60;97.40;;;;;;5076486;28;20372;-69
2022/12/22 16:43:55;;;;;;;15.38;4.78;;;9.60;97.50;;;;;;5073680;28;20041;-68
2022/12/22 16:46:22;;;;;;;24.45;7.97;;;9.60;97.90;;;;;;5058739;28;20421;-70
2022/12/22 16:48:59;;;;;;;19.52;4.68;;;9.50;98.00;;;;;;5073589;28;20040;-69